Claude, Texas
Current Conditions -  °F | °C
As of 3:41 AM on Thursday 18 Dec 2014 (Local Time) from KAMA Reporting Station
Moderate Fog Moderate Fog  
Wind Chill: 25°   Ceiling: 100
Heat Index: 33°   Visibility: 0.25mi
Dew Point: 32°   Wind: 9mph
Humidity: 96%   Direction: 300°WNW
Pressure: 30.01"   Gusts: NA
Location:  35.11°N, 101.36°W
Report Text: KAMA 180941Z AUTO 30008KT 1/4SM R04/1200V2200FT FG VV001 01/00 A3001 RMK AO2 T00060000
Loading
Personal Weather Stations






























Interactive Weather Map New forecast layout! Learn more

10-Day Weather Forecast

Advertisements
Track Severe Weather on mobile